Time;durP1;ratioP1;P1;durP2;ratioP2;P2;SDS_P1;SDS_P2;PMS_P1;PMS_P2;Temp;Humidity;BMP_temperature;BMP_pressure;BME280_temperature;BME280_humidity;BME280_pressure;Samples;Min_cycle;Max_cycle;Signal;HPM_P1;HPM_P2
2021/12/13 00:02:30;;;;;;;18.85;10.90;;;;;;;7.42;70.16;100203.59;5102990;29;20051;-69
2021/12/13 00:05:24;;;;;;;18.58;10.45;;;;;;;7.47;69.92;100203.28;5106350;29;20071;-69
2021/12/13 00:08:19;;;;;;;23.57;11.87;;;;;;;7.52;70.44;100204.72;5102872;29;20054;-69
2021/12/13 00:11:18;;;;;;;20.35;10.00;;;;;;;7.37;70.75;100213.56;5102681;29;20474;-69
2021/12/13 00:14:14;;;;;;;17.75;10.50;;;;;;;7.49;71.05;100214.63;5103354;29;20521;-69
2021/12/13 00:17:34;;;;;;;19.20;10.70;;;;;;;7.44;70.04;100214.03;5102777;29;20070;-69
2021/12/13 00:20:38;;;;;;;20.02;10.05;;;;;;;7.43;71.41;100207.91;5103518;29;20125;-69
2021/12/13 00:23:34;;;;;;;19.67;11.07;;;;;;;7.52;70.36;100203.88;5103344;29;20135;-69
2021/12/13 00:26:30;;;;;;;22.23;12.20;;;;;;;7.74;70.40;100208.66;5102846;29;20046;-69
2021/12/13 00:29:25;;;;;;;26.13;11.60;;;;;;;7.53;70.36;100197.63;5103258;29;20078;-69
2021/12/13 00:32:41;;;;;;;22.25;12.35;;;;;;;7.38;71.50;100203.84;5102834;29;20137;-69
2021/12/13 00:35:40;;;;;;;26.95;13.35;;;;;;;7.40;71.44;100200.19;5103078;29;20584;-69
2021/12/13 00:38:37;;;;;;;20.55;11.85;;;;;;;7.39;70.76;100202.94;5102528;29;20055;-69
2021/12/13 00:41:29;;;;;;;27.75;13.25;;;;;;;7.34;71.60;100199.72;5102308;29;20050;-69
2021/12/13 00:44:23;;;;;;;23.50;13.38;;;;;;;7.30;70.69;100202.53;5102266;29;20110;-69
2021/12/13 00:47:19;;;;;;;25.98;14.35;;;;;;;7.52;70.58;100202.06;5099154;29;20623;-69
2021/12/13 00:50:24;;;;;;;27.88;15.18;;;;;;;7.31;71.35;100198.09;5096367;29;20163;-69
2021/12/13 00:53:19;;;;;;;31.70;16.13;;;;;;;7.62;70.87;100206.78;5087070;29;20107;-69
2021/12/13 00:56:50;;;;;;;26.08;16.45;;;;;;;7.47;71.05;100209.41;5102230;29;20129;-69
2021/12/13 00:59:53;;;;;;;33.65;16.88;;;;;;;7.42;70.75;100205.38;5102673;29;20544;-69
2021/12/13 01:02:56;;;;;;;25.77;14.98;;;;;;;7.38;71.29;100211.75;5102398;29;20043;-69
2021/12/13 01:06:06;;;;;;;26.47;15.53;;;;;;;7.26;71.64;100210.75;5102126;29;20047;-69
2021/12/13 01:09:34;;;;;;;30.13;16.02;;;;;;;7.41;71.29;100201.88;5085269;29;20280;-69
2021/12/13 01:12:26;;;;;;;29.67;15.75;;;;;;;7.29;71.39;100200.00;5094048;29;20048;-69
2021/12/13 01:15:29;;;;;;;31.83;16.10;;;;;;;7.07;72.56;100187.25;5083117;29;20060;-69
2021/12/13 01:18:56;;;;;;;30.97;16.50;;;;;;;7.42;71.84;100208.03;5082835;29;20111;-69
2021/12/13 01:22:27;;;;;;;29.05;15.05;;;;;;;7.50;71.99;100200.47;5082522;29;20142;-69
2021/12/13 01:26:00;;;;;;;30.17;15.27;;;;;;;7.31;71.67;100192.81;5095300;29;20451;-69
2021/12/13 01:28:57;;;;;;;23.70;15.07;;;;;;;7.29;71.94;100200.84;5102831;29;20050;-69
2021/12/13 01:31:57;;;;;;;25.45;14.73;;;;;;;7.31;71.88;100206.00;5102113;29;20050;-69
2021/12/13 01:34:47;;;;;;;27.02;14.15;;;;;;;7.32;72.23;100210.38;5102354;29;20054;-69
2021/12/13 01:37:38;;;;;;;25.20;15.05;;;;;;;7.41;71.42;100208.94;5101892;29;20055;-69
2021/12/13 01:40:34;;;;;;;24.63;15.32;;;;;;;7.36;71.88;100211.03;5104373;29;20047;-69
2021/12/13 01:43:28;;;;;;;27.33;16.27;;;;;;;7.71;70.97;100207.03;5101394;29;20052;-69
2021/12/13 01:46:21;;;;;;;29.05;15.75;;;;;;;7.68;70.27;100219.59;5101408;29;20055;-69
2021/12/13 01:49:14;;;;;;;23.90;15.20;;;;;;;7.74;70.07;100219.22;5101948;29;20083;-69
2021/12/13 01:52:17;;;;;;;26.55;15.50;;;;;;;7.52;71.06;100220.56;5101133;29;20061;-69
2021/12/13 01:55:23;;;;;;;29.98;16.65;;;;;;;7.32;72.26;100218.28;5082522;29;20246;-69
2021/12/13 02:01:20;;;;;;;35.85;19.63;;;;;;;7.21;72.86;100212.78;5084655;29;20116;-69
2021/12/13 02:04:14;;;;;;;31.90;18.52;;;;;;;7.39;72.20;100216.97;5106234;29;20078;-69
2021/12/13 02:07:04;;;;;;;34.83;19.98;;;;;;;7.22;72.39;100204.81;5105935;29;20048;-68
2021/12/13 02:09:56;;;;;;;39.58;21.73;;;;;;;7.25;72.51;100211.66;5104293;29;20055;-69
2021/12/13 02:12:54;;;;;;;33.97;20.23;;;;;;;7.12;73.20;100208.06;5105306;29;20047;-69
2021/12/13 02:19:00;;;;;;;43.33;24.38;;;;;;;6.12;77.11;100200.66;5104922;29;20134;-68
2021/12/13 02:22:02;;;;;;;44.05;23.95;;;;;;;6.14;77.41;100205.88;5105277;29;20411;-68
2021/12/13 02:24:55;;;;;;;44.88;23.30;;;;;;;6.03;77.25;100204.69;5105480;29;20529;-69
2021/12/13 02:27:55;;;;;;;41.05;22.10;;;;;;;6.22;76.92;100196.59;5092112;29;20546;-69
2021/12/13 02:30:50;;;;;;;39.65;21.35;;;;;;;6.13;78.09;100207.66;5086899;29;20048;-68
2021/12/13 02:33:43;;;;;;;43.20;22.65;;;;;;;6.46;75.64;100207.53;5085474;29;20115;-69
2021/12/13 02:36:38;;;;;;;43.45;20.10;;;;;;;6.59;74.79;100205.88;5085346;29;20450;-69
2021/12/13 02:39:33;;;;;;;38.67;20.52;;;;;;;6.35;76.06;100194.94;5085643;29;20424;-69
2021/12/13 02:42:23;;;;;;;34.78;20.48;;;;;;;6.93;74.06;100210.97;5091512;29;20170;-69
2021/12/13 02:45:22;;;;;;;40.17;20.23;;;;;;;6.85;75.15;100207.91;5104503;29;20540;-69
2021/12/13 02:48:16;;;;;;;40.22;21.73;;;;;;;6.56;75.18;100215.75;5102693;29;20533;-69
2021/12/13 02:51:18;;;;;;;43.25;21.80;;;;;;;6.38;75.76;100216.78;5104875;29;20055;-69
2021/12/13 02:54:18;;;;;;;44.72;21.85;;;;;;;6.48;75.72;100213.53;5098861;29;20044;-69
2021/12/13 02:57:11;;;;;;;44.72;22.83;;;;;;;6.44;76.17;100209.41;5105060;29;20050;-69
2021/12/13 03:00:12;;;;;;;43.03;22.10;;;;;;;6.46;76.35;100212.81;5105388;29;20098;-68
2021/12/13 03:03:07;;;;;;;49.80;23.58;;;;;;;6.28;76.16;100219.09;5104593;29;20055;-69
2021/12/13 03:06:00;;;;;;;46.70;22.83;;;;;;;6.92;74.39;100210.13;5104209;29;20036;-69
2021/12/13 03:08:56;;;;;;;47.60;22.40;;;;;;;6.85;74.69;100219.31;5105470;29;20059;-69
2021/12/13 03:11:50;;;;;;;51.55;23.58;;;;;;;7.14;73.15;100220.22;5085846;29;20047;-69
2021/12/13 03:14:51;;;;;;;52.95;23.70;;;;;;;7.55;71.35;100219.53;5084164;29;20051;-69
2021/12/13 03:17:52;;;;;;;50.17;22.63;;;;;;;7.19;73.60;100217.34;5084482;29;20095;-69
2021/12/13 03:21:12;;;;;;;44.13;20.83;;;;;;;7.10;73.52;100220.50;5084994;29;20139;-69
2021/12/13 03:24:15;;;;;;;42.85;21.88;;;;;;;7.35;72.80;100218.09;5087852;29;20047;-69
2021/12/13 03:27:43;;;;;;;47.75;23.27;;;;;;;7.62;72.50;100222.63;5103974;29;20078;-69
2021/12/13 03:30:42;;;;;;;48.40;22.83;;;;;;;7.50;72.69;100227.69;5104520;29;20541;-69
2021/12/13 03:33:55;;;;;;;45.97;22.38;;;;;;;7.47;71.61;100230.53;5104199;29;20062;-69
2021/12/13 03:37:30;;;;;;;42.03;21.17;;;;;;;7.43;72.94;100228.19;5102867;29;20529;-69
2021/12/13 03:40:21;;;;;;;45.17;21.77;;;;;;;7.32;73.70;100222.69;5088607;29;20147;-69
2021/12/13 03:43:32;;;;;;;45.03;21.92;;;;;;;7.37;72.87;100220.63;5084400;29;20583;-69
2021/12/13 03:46:25;;;;;;;49.13;20.88;;;;;;;7.41;72.40;100211.59;5083794;29;20168;-69
2021/12/13 03:49:18;;;;;;;47.63;20.92;;;;;;;7.54;72.30;100226.56;5103581;29;20099;-69
2021/12/13 03:52:12;;;;;;;43.60;21.40;;;;;;;7.42;72.71;100222.06;5101597;29;20050;-69
2021/12/13 03:55:03;;;;;;;;;;;;;;;7.41;72.66;100227.41;5102898;29;20119;-69
2021/12/13 03:58:00;;;;;;;42.88;21.02;;;;;;;7.52;72.30;100224.97;5103711;29;20506;-69
2021/12/13 04:01:05;;;;;;;43.65;21.15;;;;;;;7.48;72.03;100228.72;5103470;29;20040;-69
2021/12/13 04:03:59;;;;;;;44.83;21.00;;;;;;;7.50;72.52;100226.84;5103959;29;20059;-69
2021/12/13 04:07:12;;;;;;;41.22;20.20;;;;;;;7.57;71.94;100224.69;5102964;29;20127;-69
2021/12/13 04:10:11;;;;;;;39.15;19.70;;;;;;;7.46;71.60;100212.16;5083984;29;20180;-68
2021/12/13 04:13:10;;;;;;;37.28;20.35;;;;;;;7.69;71.72;100223.94;5083653;29;20143;-69
2021/12/13 04:16:15;;;;;;;43.85;21.35;;;;;;;7.58;71.67;100227.22;5083385;29;20063;-69
2021/12/13 04:19:12;;;;;;;39.70;19.88;;;;;;;7.61;71.18;100227.03;5083493;29;20474;-69
2021/12/13 04:22:04;;;;;;;45.05;19.88;;;;;;;7.62;71.45;100226.13;5087844;29;20059;-69
2021/12/13 04:25:01;;;;;;;43.05;20.05;;;;;;;7.48;72.44;100226.09;5103412;29;20046;-69
2021/12/13 04:27:56;;;;;;;45.10;20.60;;;;;;;7.60;71.19;100225.34;5101781;29;20225;-69
2021/12/13 04:31:08;;;;;;;31.77;18.25;;;;;;;7.66;71.92;100240.81;5103019;29;20050;-69
2021/12/13 04:34:02;;;;;;;39.78;19.38;;;;;;;7.74;71.18;100235.03;5102874;29;21188;-68
2021/12/13 04:36:57;;;;;;;39.07;19.27;;;;;;;7.71;71.97;100241.34;5097353;29;20047;-69
2021/12/13 04:39:54;;;;;;;43.42;19.52;;;;;;;7.76;71.32;100243.72;5083225;29;20051;-69
2021/12/13 04:42:49;;;;;;;49.17;20.52;;;;;;;7.78;71.27;100236.53;5100873;29;20047;-69
2021/12/13 04:45:46;;;;;;;49.47;21.80;;;;;;;7.76;71.42;100243.72;5102543;29;20054;-69
2021/12/13 04:48:38;;;;;;;49.83;21.63;;;;;;;7.68;71.93;100243.34;5101338;29;20062;-69
2021/12/13 04:51:39;;;;;;;41.55;20.48;;;;;;;7.67;71.42;100241.66;5100717;29;20055;-69
2021/12/13 04:54:32;;;;;;;43.97;20.17;;;;;;;7.70;71.84;100244.09;5102600;29;20545;-69
2021/12/13 04:57:23;;;;;;;45.53;22.10;;;;;;;7.71;71.59;100246.63;5102447;29;20051;-69
2021/12/13 05:00:16;;;;;;;44.83;20.95;;;;;;;7.64;70.94;100241.84;5102176;29;20287;-69
2021/12/13 05:03:08;;;;;;;43.45;19.73;;;;;;;7.69;72.06;100245.91;5112578;29;20039;-69
2021/12/13 05:06:08;;;;;;;45.90;21.42;;;;;;;7.97;70.87;100245.00;5082534;29;20050;-69
2021/12/13 05:09:03;;;;;;;46.42;20.17;;;;;;;7.89;70.56;100244.66;5082911;29;20169;-69
2021/12/13 05:12:02;;;;;;;49.55;20.85;;;;;;;7.83;72.15;100249.47;5101530;29;20115;-68
2021/12/13 05:15:08;;;;;;;49.00;21.27;;;;;;;7.71;71.10;100248.44;5101650;29;20146;-69
2021/12/13 05:18:02;;;;;;;52.58;21.67;;;;;;;8.03;70.78;100256.16;5101160;29;20047;-69
2021/12/13 05:21:03;;;;;;;51.30;21.40;;;;;;;7.79;71.01;100256.75;5102196;29;20133;-69
2021/12/13 05:23:58;;;;;;;47.03;21.77;;;;;;;7.61;71.86;100260.50;5101903;29;20048;-69
2021/12/13 05:27:09;;;;;;;51.05;21.48;;;;;;;7.67;71.75;100263.63;5102091;29;20065;-69
2021/12/13 05:30:09;;;;;;;45.97;20.77;;;;;;;7.58;72.21;100258.06;5102356;29;20538;-69
2021/12/13 05:33:06;;;;;;;54.25;20.17;;;;;;;7.66;71.44;100269.00;5106784;29;20106;-68
2021/12/13 05:36:01;;;;;;;51.58;21.45;;;;;;;7.74;71.82;100266.72;5121103;29;20041;-68
2021/12/13 05:39:15;;;;;;;46.75;21.65;;;;;;;7.74;70.97;100270.22;5116632;28;20069;-69
2021/12/13 05:42:11;;;;;;;44.22;20.60;;;;;;;7.73;71.26;100283.53;5101735;29;20058;-69
2021/12/13 05:45:01;;;;;;;42.97;22.13;;;;;;;7.64;72.31;100284.91;5102136;29;20048;-70
2021/12/13 05:48:00;;;;;;;42.40;22.10;;;;;;;7.68;71.11;100283.81;5101039;29;20059;-69
2021/12/13 05:50:59;;;;;;;51.00;23.30;;;;;;;7.72;72.01;100290.59;5102168;29;20110;-68
2021/12/13 05:54:07;;;;;;;51.55;20.85;;;;;;;7.68;72.81;100280.31;5107317;29;20054;-68
2021/12/13 05:56:59;;;;;;;44.63;21.65;;;;;;;8.00;70.05;100276.53;5100918;29;20055;-69
2021/12/13 06:00:02;;;;;;;46.25;21.35;;;;;;;8.27;69.33;100281.00;5102630;29;20043;-68
2021/12/13 06:03:17;;;;;;;49.17;23.00;;;;;;;8.05;69.91;100280.69;5112311;28;20044;-68
2021/12/13 06:06:12;;;;;;;42.53;20.15;;;;;;;7.89;70.93;100283.44;5119004;29;20113;-69
2021/12/13 06:09:02;;;;;;;42.20;21.05;;;;;;;7.81;71.42;100281.25;5110684;29;20106;-69
2021/12/13 06:12:05;;;;;;;56.90;25.05;;;;;;;7.85;71.15;100284.56;5121557;29;20054;-69
2021/12/13 06:14:55;;;;;;;45.38;22.40;;;;;;;7.77;71.68;100274.47;5098786;29;20458;-68
2021/12/13 06:17:53;;;;;;;41.60;20.83;;;;;;;7.77;71.57;100285.03;5098435;29;20198;-69
2021/12/13 06:20:52;;;;;;;45.65;23.35;;;;;;;7.68;71.98;100290.84;5112660;29;20444;-69
2021/12/13 06:23:46;;;;;;;51.15;24.42;;;;;;;7.80;71.61;100297.19;5100289;29;20052;-69
2021/12/13 06:26:38;;;;;;;46.63;21.45;;;;;;;7.95;71.36;100293.63;5091513;29;20055;-68
2021/12/13 06:29:46;;;;;;;39.53;21.20;;;;;;;7.73;71.55;100284.38;5111826;29;20050;-68
2021/12/13 06:32:49;;;;;;;44.92;21.85;;;;;;;7.67;72.09;100294.44;5110193;29;20088;-70
2021/12/13 06:35:44;;;;;;;44.80;20.23;;;;;;;7.71;72.29;100291.53;5099654;29;20176;-69
2021/12/13 06:38:56;;;;;;;44.85;21.73;;;;;;;7.61;71.68;100290.38;5103665;29;20070;-69
2021/12/13 06:41:59;;;;;;;45.75;20.60;;;;;;;7.59;72.24;100294.94;5107414;29;20066;-70
2021/12/13 06:44:49;;;;;;;38.92;19.88;;;;;;;7.71;72.14;100291.53;5116077;29;20500;-68
2021/12/13 06:47:47;;;;;;;38.55;20.10;;;;;;;7.78;71.76;100289.34;5109644;29;20163;-68
2021/12/13 06:50:38;;;;;;;39.22;20.65;;;;;;;7.82;71.75;100292.69;5108932;29;20151;-69
2021/12/13 06:53:28;;;;;;;40.55;21.23;;;;;;;7.84;71.23;100302.19;5117588;29;20047;-68
2021/12/13 06:56:23;;;;;;;62.38;29.88;;;;;;;7.79;71.69;100299.00;5123600;29;20054;-70
2021/12/13 06:59:16;;;;;;;52.60;26.48;;;;;;;7.67;71.65;100307.66;5088067;29;20078;-70
2021/12/13 07:02:14;;;;;;;50.07;23.47;;;;;;;7.71;71.64;100306.50;5098784;29;20146;-69
2021/12/13 07:05:21;;;;;;;89.30;42.03;;;;;;;7.76;71.86;100302.66;5101224;29;20540;-68
2021/12/13 07:08:19;;;;;;;43.55;21.98;;;;;;;7.77;72.32;100307.00;5103232;29;20047;-70
2021/12/13 07:11:13;;;;;;;43.08;21.63;;;;;;;7.74;72.13;100303.69;5101784;29;20040;-72
2021/12/13 07:14:07;;;;;;;40.58;20.00;;;;;;;7.92;71.30;100310.50;5103332;29;20655;-68
2021/12/13 07:16:57;;;;;;;49.20;20.73;;;;;;;7.93;71.55;100309.53;5103029;29;20055;-68
2021/12/13 07:19:50;;;;;;;38.03;20.02;;;;;;;8.20;69.71;100314.06;5102839;29;20474;-71
2021/12/13 07:22:42;;;;;;;32.40;15.40;;;;;;;7.91;71.88;100313.22;5102942;29;20047;-69
2021/12/13 07:25:40;;;;;;;39.35;20.15;;;;;;;7.92;72.11;100315.78;5099376;29;20043;-68
2021/12/13 07:28:36;;;;;;;47.03;20.42;;;;;;;7.99;71.16;100310.97;5110876;29;20638;-69
2021/12/13 07:31:26;;;;;;;42.50;20.63;;;;;;;8.02;71.01;100317.84;5136372;28;20414;-70
2021/12/13 07:34:19;;;;;;;44.92;21.30;;;;;;;8.12;70.71;100324.25;5123772;29;20122;-68
2021/12/13 07:37:09;;;;;;;49.47;22.10;;;;;;;8.18;70.63;100323.88;5123615;29;20055;-68
2021/12/13 07:40:32;;;;;;;41.10;21.25;;;;;;;8.06;70.80;100316.72;5094866;29;20115;-68
2021/12/13 07:43:30;;;;;;;42.30;21.38;;;;;;;7.99;71.13;100316.25;5095114;29;20612;-68
2021/12/13 07:46:21;;;;;;;42.53;20.10;;;;;;;7.65;72.08;100312.16;5103405;29;20059;-68
2021/12/13 07:49:11;;;;;;;42.67;21.15;;;;;;;7.65;72.76;100312.16;5111711;29;20050;-68
2021/12/13 07:52:05;;;;;;;46.45;21.35;;;;;;;8.04;70.84;100318.59;5107281;29;20421;-68
2021/12/13 07:55:11;;;;;;;41.38;21.13;;;;;;;7.75;72.72;100318.63;5114890;29;20118;-68
2021/12/13 07:58:04;;;;;;;39.67;20.17;;;;;;;7.90;71.77;100325.56;5103102;29;20406;-69
2021/12/13 08:01:11;;;;;;;43.80;21.63;;;;;;;7.83;72.00;100321.63;5102020;29;20047;-71
2021/12/13 08:04:17;;;;;;;41.85;20.52;;;;;;;7.90;71.83;100328.22;5103286;29;20135;-68
2021/12/13 08:07:11;;;;;;;56.70;23.67;;;;;;;7.98;71.50;100327.78;5082354;29;20254;-68
2021/12/13 08:10:06;;;;;;;;;;;;;;;8.07;71.65;100343.03;5083918;29;20056;-68
2021/12/13 08:13:06;;;;;;;;;;;;;;;8.04;72.06;100340.56;5096070;29;19945;-68
2021/12/13 08:16:02;;;;;;;38.47;20.50;;;;;;;8.10;71.56;100334.06;5083111;29;19970;-70
2021/12/13 08:19:05;;;;;;;46.60;24.92;;;;;;;8.07;71.85;100337.75;5083615;29;20170;-69
2021/12/13 08:22:01;;;;;;;44.17;21.42;;;;;;;8.10;71.79;100334.06;5095600;29;20088;-68
2021/12/13 08:24:53;;;;;;;46.08;21.92;;;;;;;8.30;71.32;100340.75;5082188;29;20052;-69
2021/12/13 08:27:54;;;;;;;43.25;20.10;;;;;;;8.29;71.77;100339.91;5081575;29;20083;-68
2021/12/13 08:30:52;;;;;;;38.00;19.70;;;;;;;8.60;70.53;100337.97;5097697;29;20110;-68
2021/12/13 08:33:45;;;;;;;37.42;21.60;;;;;;;8.77;69.23;100339.53;5100279;29;20503;-68
2021/12/13 08:36:45;;;;;;;30.30;14.40;;;;;;;8.64;69.67;100340.34;5102257;29;20446;-68
2021/12/13 08:39:37;;;;;;;39.92;20.05;;;;;;;8.83;69.86;100342.63;5102993;29;20103;-68
2021/12/13 08:42:35;;;;;;;36.25;20.23;;;;;;;8.79;69.78;100341.16;5103014;29;20457;-68
2021/12/13 08:45:28;;;;;;;42.08;22.15;;;;;;;8.59;71.63;100347.72;5104652;29;20075;-67
2021/12/13 08:48:20;;;;;;;40.95;21.45;;;;;;;8.72;70.00;100339.84;5113700;29;21622;-68
2021/12/13 08:51:16;;;;;;;36.92;20.75;;;;;;;8.81;70.21;100349.84;5083838;29;20048;-68
2021/12/13 08:54:12;;;;;;;40.08;20.90;;;;;;;8.89;69.41;100350.19;5081575;29;20059;-68
2021/12/13 08:57:04;;;;;;;36.80;21.10;;;;;;;8.79;69.91;100329.72;5081949;29;20187;-68
2021/12/13 08:59:56;;;;;;;38.50;20.15;;;;;;;9.05;69.63;100349.19;5090225;29;20058;-69
2021/12/13 09:03:01;;;;;;;36.88;20.73;;;;;;;8.83;69.47;100341.78;5101494;29;20062;-68
2021/12/13 09:06:17;;;;;;;38.03;20.58;;;;;;;8.83;70.20;100358.50;5107202;29;20050;-68
2021/12/13 09:09:17;;;;;;;39.22;20.35;;;;;;;8.81;70.55;100359.56;5126269;28;20142;-69
2021/12/13 09:12:10;;;;;;;34.72;18.80;;;;;;;8.78;70.65;100351.84;5084366;29;20047;-69
2021/12/13 09:15:17;;;;;;;43.67;22.60;;;;;;;8.90;70.71;100358.94;5082275;29;20074;-69
2021/12/13 09:18:08;;;;;;;38.88;20.38;;;;;;;9.09;69.68;100366.53;5083671;29;20051;-69
2021/12/13 09:21:00;;;;;;;44.22;20.13;;;;;;;8.97;71.03;100362.88;5101823;29;20076;-69
2021/12/13 09:23:51;;;;;;;40.30;19.50;;;;;;;9.08;70.30;100367.50;5100829;29;20125;-69
2021/12/13 09:26:42;;;;;;;42.05;19.40;;;;;;;9.27;69.83;100370.63;5082113;29;20751;-69
2021/12/13 09:29:46;;;;;;;39.17;20.23;;;;;;;9.41;68.59;100373.19;5096687;29;20060;-69
2021/12/13 09:32:41;;;;;;;34.92;19.30;;;;;;;9.58;68.76;100373.88;5114048;29;20054;-69
2021/12/13 09:35:45;;;;;;;38.03;19.00;;;;;;;9.51;68.79;100369.94;5121671;29;20186;-69
2021/12/13 09:39:07;;;;;;;39.57;19.90;;;;;;;9.60;69.61;100371.94;5110863;29;20075;-69
2021/12/13 09:42:06;;;;;;;45.47;21.70;;;;;;;9.51;69.97;100372.59;5093922;29;20056;-68
2021/12/13 09:45:02;;;;;;;37.28;21.70;;;;;;;9.48;69.67;100370.16;5082427;29;20050;-69
2021/12/13 09:47:54;;;;;;;41.05;20.95;;;;;;;9.43;70.38;100370.44;5081687;29;20078;-69
2021/12/13 09:50:47;;;;;;;37.42;21.15;;;;;;;9.68;69.84;100358.22;5081752;29;20492;-69
2021/12/13 09:53:39;;;;;;;46.17;22.23;;;;;;;9.49;70.04;100367.38;5089715;29;20171;-69
2021/12/13 09:56:36;;;;;;;52.67;20.90;;;;;;;9.54;69.97;100359.16;5103244;29;20080;-68
2021/12/13 09:59:40;;;;;;;45.70;23.38;;;;;;;9.68;69.19;100345.81;5118683;29;20414;-69
2021/12/13 10:02:34;;;;;;;47.05;23.50;;;;;;;9.68;69.38;100353.75;5082052;29;20514;-68
2021/12/13 10:05:29;;;;;;;47.15;23.08;;;;;;;9.59;70.29;100357.03;5081091;29;20423;-68
2021/12/13 10:08:25;;;;;;;50.97;23.73;;;;;;;9.53;70.69;100355.63;5093641;29;20470;-69
2021/12/13 10:11:27;;;;;;;49.78;22.80;;;;;;;9.60;70.79;100353.41;5101700;29;20588;-68
2021/12/13 10:14:22;;;;;;;47.90;23.45;;;;;;;9.73;70.44;100356.91;5099882;29;20048;-71
2021/12/13 10:17:15;;;;;;;50.13;23.48;;;;;;;9.65;71.31;100351.31;5093165;29;20063;-69
2021/12/13 10:20:15;;;;;;;49.92;23.23;;;;;;;9.70;71.09;100350.97;5089034;29;20414;-69
2021/12/13 10:23:11;;;;;;;45.17;23.45;;;;;;;9.69;70.50;100350.16;5108267;29;20588;-69
2021/12/13 10:26:06;;;;;;;48.20;23.75;;;;;;;9.81;70.42;100349.31;5106908;29;20058;-69
2021/12/13 10:28:59;;;;;;;54.38;24.85;;;;;;;9.79;71.02;100337.97;5108492;29;20062;-69
2021/12/13 10:32:12;;;;;;;44.17;24.33;;;;;;;9.69;71.21;100339.53;5105420;28;20059;-69
2021/12/13 10:35:08;;;;;;;49.92;23.30;;;;;;;9.94;69.94;100337.88;5115117;28;20044;-69
2021/12/13 10:38:04;;;;;;;46.63;23.60;;;;;;;10.01;70.81;100334.69;5110735;29;20114;-69
2021/12/13 10:41:03;;;;;;;54.05;23.75;;;;;;;9.95;71.61;100335.09;5104940;29;20544;-69
2021/12/13 10:43:57;;;;;;;56.33;24.25;;;;;;;10.08;70.62;100330.63;5105314;29;20059;-69
2021/12/13 10:46:57;;;;;;;46.45;23.67;;;;;;;10.06;70.43;100337.84;5104697;29;20043;-69
2021/12/13 10:49:50;;;;;;;46.67;23.27;;;;;;;10.12;70.04;100336.56;5104876;29;20055;-69
2021/12/13 10:52:48;;;;;;;48.22;23.58;;;;;;;10.07;71.08;100336.06;5116409;29;20150;-69
2021/12/13 10:55:44;;;;;;;43.83;22.13;;;;;;;10.16;70.79;100332.75;5104633;29;20048;-68
2021/12/13 10:58:43;;;;;;;43.60;22.63;;;;;;;10.33;69.78;100327.13;5115397;29;20047;-69
2021/12/13 11:01:39;;;;;;;42.33;21.55;;;;;;;10.24;69.93;100332.22;5101436;29;20067;-69
2021/12/13 11:04:35;;;;;;;46.67;22.38;;;;;;;10.23;71.11;100325.19;5084666;29;20522;-68
2021/12/13 11:07:25;;;;;;;44.33;22.15;;;;;;;10.18;70.61;100328.19;5084438;29;20052;-70
2021/12/13 11:10:20;;;;;;;41.40;21.42;;;;;;;10.05;70.90;100322.06;5095697;29;20047;-69
2021/12/13 11:13:10;;;;;;;44.22;21.52;;;;;;;10.29;70.67;100320.34;5104044;29;20059;-69
2021/12/13 11:16:07;;;;;;;47.10;21.77;;;;;;;10.41;70.31;100315.97;5103215;29;20048;-69
2021/12/13 11:18:57;;;;;;;43.15;19.70;;;;;;;10.75;68.45;100309.06;5101669;29;20530;-69
2021/12/13 11:21:50;;;;;;;40.75;21.33;;;;;;;10.55;69.90;100315.81;5114537;29;20194;-69
2021/12/13 11:24:44;;;;;;;40.15;19.35;;;;;;;10.46;70.19;100310.31;5095868;29;20058;-69
2021/12/13 11:27:34;;;;;;;37.83;19.97;;;;;;;10.48;70.26;100309.28;5113886;29;20066;-69
2021/12/13 11:30:28;;;;;;;41.38;19.58;;;;;;;10.59;70.62;100308.47;5123597;29;20070;-69
2021/12/13 11:33:38;;;;;;;34.88;18.90;;;;;;;10.78;69.46;100300.88;5123762;29;20054;-69
2021/12/13 11:36:45;;;;;;;33.53;17.88;;;;;;;10.77;68.56;100291.22;5123388;29;20050;-69
2021/12/13 11:40:02;;;;;;;39.88;18.90;;;;;;;11.05;67.65;100305.94;5106364;29;20139;-69
2021/12/13 11:43:10;;;;;;;34.40;17.35;;;;;;;11.20;66.68;100295.97;5117145;29;20077;-69
2021/12/13 11:46:15;;;;;;;33.25;18.00;;;;;;;10.73;69.05;100299.53;5106933;29;20779;-69
2021/12/13 11:49:39;;;;;;;29.67;16.45;;;;;;;10.66;68.66;100299.16;5106325;29;20043;-68
2021/12/13 11:52:49;;;;;;;32.50;17.95;;;;;;;10.81;68.38;100298.00;5104797;29;20058;-69
2021/12/13 11:56:04;;;;;;;27.38;15.82;;;;;;;11.03;66.95;100296.41;5105555;29;20178;-69
2021/12/13 11:59:06;;;;;;;30.17;16.55;;;;;;;10.72;68.95;100303.97;5106689;29;20430;-69
2021/12/13 12:02:02;;;;;;;33.50;16.67;;;;;;;10.80;68.01;100296.31;5106173;29;20099;-69
2021/12/13 12:05:38;;;;;;;32.85;17.50;;;;;;;10.75;68.52;100281.69;5104519;29;20055;-69
2021/12/13 12:08:50;;;;;;;26.60;15.48;;;;;;;10.72;67.84;100280.09;5106580;29;20046;-69
2021/12/13 12:12:02;;;;;;;27.00;15.55;;;;;;;10.82;68.52;100298.84;5105960;29;20048;-69
2021/12/13 12:15:00;;;;;;;26.50;16.02;;;;;;;10.84;67.83;100296.94;5104374;29;20054;-69
2021/12/13 12:17:52;;;;;;;31.38;14.75;;;;;;;10.70;67.55;100286.50;5102374;29;20050;-69
2021/12/13 12:20:47;;;;;;;25.77;14.65;;;;;;;10.76;68.32;100294.84;5118542;28;20058;-69
2021/12/13 12:23:42;;;;;;;21.50;12.82;;;;;;;10.90;66.58;100275.25;5105234;29;20051;-69
2021/12/13 12:26:34;;;;;;;24.02;14.40;;;;;;;10.66;68.82;100261.13;5104907;29;20048;-68
2021/12/13 12:29:30;;;;;;;25.58;15.40;;;;;;;10.86;67.71;100278.22;5103455;29;20051;-68
2021/12/13 12:32:23;;;;;;;20.13;13.25;;;;;;;10.97;67.12;100280.94;5100768;28;20048;-68
2021/12/13 12:35:24;;;;;;;22.65;12.82;;;;;;;10.97;67.63;100267.69;5115824;29;20069;-69
2021/12/13 12:38:31;;;;;;;19.77;12.88;;;;;;;11.14;66.83;100277.03;5115517;29;20043;-71
2021/12/13 12:41:36;;;;;;;24.30;12.70;;;;;;;10.94;68.76;100278.53;5121901;29;20054;-71
2021/12/13 12:44:43;;;;;;;21.08;13.57;;;;;;;11.04;66.84;100247.66;5102174;29;20058;-69
2021/12/13 12:47:35;;;;;;;23.75;13.15;;;;;;;11.02;68.40;100270.81;5108391;29;20142;-71
2021/12/13 12:50:33;;;;;;;22.15;13.82;;;;;;;10.96;68.55;100253.56;5100543;29;20118;-70
2021/12/13 12:53:33;;;;;;;21.00;12.60;;;;;;;11.01;68.38;100250.56;5099241;29;20454;-69
2021/12/13 12:56:43;;;;;;;16.38;10.55;;;;;;;10.92;69.09;100248.59;5099940;29;20556;-69
2021/12/13 12:59:38;;;;;;;14.13;8.52;;;;;;;11.01;67.52;100246.09;5105591;29;20403;-70
2021/12/13 13:02:31;;;;;;;9.40;6.38;;;;;;;11.21;66.48;100243.72;5111526;29;20091;-69
2021/12/13 13:05:26;;;;;;;12.52;8.68;;;;;;;11.32;66.42;100254.38;5112127;29;20047;-68
2021/12/13 13:08:29;;;;;;;13.07;9.30;;;;;;;11.01;67.40;100255.88;5106852;29;20040;-69
2021/12/13 13:11:27;;;;;;;11.20;8.00;;;;;;;10.71;68.03;100232.47;5110434;29;20039;-68
2021/12/13 13:14:27;;;;;;;12.98;7.75;;;;;;;10.89;68.25;100246.16;5106549;29;20582;-68
2021/12/13 13:17:23;;;;;;;12.35;7.60;;;;;;;10.80;68.19;100247.72;5103536;29;20040;-68
2021/12/13 13:20:33;;;;;;;11.45;8.23;;;;;;;10.78;67.97;100249.63;5102289;29;20055;-68
2021/12/13 13:23:27;;;;;;;13.13;8.73;;;;;;;10.85;68.31;100248.19;5104212;29;20141;-68
2021/12/13 13:26:18;;;;;;;10.30;7.55;;;;;;;10.73;68.54;100249.13;5103535;29;20054;-68
2021/12/13 13:29:12;;;;;;;13.30;7.97;;;;;;;10.54;67.92;100242.53;5104614;29;20054;-69
2021/12/13 13:32:09;;;;;;;13.38;9.32;;;;;;;10.80;68.07;100243.25;5104259;29;20047;-69
2021/12/13 13:34:59;;;;;;;13.85;9.65;;;;;;;11.08;67.44;100241.16;5103345;29;20043;-69
2021/12/13 13:37:49;;;;;;;11.52;7.43;;;;;;;10.60;68.01;100235.94;5104865;29;20050;-69
2021/12/13 13:40:39;;;;;;;10.57;7.70;;;;;;;10.73;67.62;100242.03;5101843;29;20059;-68
2021/12/13 13:43:31;;;;;;;14.30;9.50;;;;;;;10.71;68.24;100238.63;5106324;29;20050;-69
2021/12/13 13:46:21;;;;;;;18.58;11.73;;;;;;;10.68;67.67;100236.19;5085835;29;20149;-69
2021/12/13 13:49:19;;;;;;;16.77;11.18;;;;;;;10.65;67.58;100247.03;5117559;29;20070;-69